Time;durP1;ratioP1;P1;durP2;ratioP2;P2;SDS_P1;SDS_P2;PMS_P1;PMS_P2;Temp;Humidity;BMP_temperature;BMP_pressure;BME280_temperature;BME280_humidity;BME280_pressure;Samples;Min_cycle;Max_cycle;Signal;HPM_P1;HPM_P2
2021/03/25 00:00:56;;;;;;;54.83;28.93;;;;;;;;;;5015932;28;20190;-74
2021/03/25 00:03:22;;;;;;;56.73;30.07;;;;;;;;;;5015907;28;20210;-76
2021/03/25 00:05:49;;;;;;;54.17;28.40;;;;;;;;;;5015772;28;20214;-76
2021/03/25 00:08:16;;;;;;;51.77;27.97;;;;;;;;;;5015847;28;20224;-76
2021/03/25 00:10:42;;;;;;;54.60;29.23;;;;;;;;;;5015949;28;20230;-76
2021/03/25 00:13:08;;;;;;;50.87;27.90;;;;;;;;;;5015709;28;20182;-76
2021/03/25 00:15:34;;;;;;;55.83;29.83;;;;;;;;;;5033257;28;20265;-74
2021/03/25 00:18:00;;;;;;;57.03;29.10;;;;;;;;;;4999077;28;20671;-76
2021/03/25 00:20:26;;;;;;;57.73;29.33;;;;;;;;;;5015691;28;20179;-75
2021/03/25 00:22:52;;;;;;;58.97;29.57;;;;;;;;;;5015402;28;20649;-76
2021/03/25 00:25:19;;;;;;;56.70;30.20;;;;;;;;;;5015257;28;20203;-75
2021/03/25 00:27:45;;;;;;;54.83;29.00;;;;;;;;;;5015791;28;20201;-76
2021/03/25 00:30:12;;;;;;;58.03;29.13;;;;;;;;;;5015550;28;20555;-76
2021/03/25 00:32:38;;;;;;;55.13;30.20;;;;;;;;;;5015601;28;20707;-75
2021/03/25 00:35:04;;;;;;;57.10;29.97;;;;;;;;;;5014820;28;20210;-75
2021/03/25 00:37:30;;;;;;;61.53;30.33;;;;;;;;;;4998994;28;20183;-75
2021/03/25 00:39:56;;;;;;;57.30;28.90;;;;;;;;;;4999113;28;20194;-75
2021/03/25 00:42:22;;;;;;;52.57;28.30;;;;;;;;;;5015143;28;20178;-76
2021/03/25 00:44:48;;;;;;;52.53;28.37;;;;;;;;;;5015326;28;20276;-76
2021/03/25 00:47:14;;;;;;;58.73;29.77;;;;;;;;;;5032564;28;20688;-76
2021/03/25 00:49:40;;;;;;;60.00;28.77;;;;;;;;;;5015212;28;20198;-75
2021/03/25 00:52:06;;;;;;;56.27;28.60;;;;;;;;;;5032440;28;20185;-76
2021/03/25 00:54:32;;;;;;;55.30;28.90;;;;;;;;;;4998566;28;20184;-75
2021/03/25 00:56:58;;;;;;;60.10;28.50;;;;;;;;;;5015290;28;20255;-75
2021/03/25 00:59:24;;;;;;;52.00;28.27;;;;;;;;;;5015924;28;20178;-75
2021/03/25 01:01:50;;;;;;;54.17;29.23;;;;;;;;;;5015573;28;20183;-75
2021/03/25 01:04:16;;;;;;;58.43;28.40;;;;;;;;;;5032824;28;20201;-75
2021/03/25 01:06:42;;;;;;;57.10;29.10;;;;;;;;;;5014878;28;20241;-76
2021/03/25 01:09:11;;;;;;;56.07;29.97;;;;;;;;;;5015205;28;20178;-75
2021/03/25 01:11:37;;;;;;;55.63;29.07;;;;;;;;;;5014582;28;20223;-76
2021/03/25 01:14:07;;;;;;;49.93;28.17;;;;;;;;;;5014675;28;20727;-76
2021/03/25 01:16:34;;;;;;;52.40;28.13;;;;;;;;;;5015096;28;20242;-75
2021/03/25 01:19:00;;;;;;;57.87;29.93;;;;;;;;;;5015227;28;20190;-75
2021/03/25 01:21:26;;;;;;;55.13;29.53;;;;;;;;;;5014677;28;20237;-74
2021/03/25 01:23:53;;;;;;;55.13;28.50;;;;;;;;;;5015025;28;20182;-75
2021/03/25 01:26:19;;;;;;;61.93;29.67;;;;;;;;;;5014523;28;20291;-75
2021/03/25 01:28:44;;;;;;;55.83;28.73;;;;;;;;;;5014654;28;20656;-73
2021/03/25 01:31:10;;;;;;;61.73;29.97;;;;;;;;;;5014479;28;20189;-75
2021/03/25 01:33:37;;;;;;;57.50;29.60;;;;;;;;;;5014646;28;20178;-75
2021/03/25 01:36:03;;;;;;;56.60;28.83;;;;;;;;;;5031895;28;20594;-75
2021/03/25 01:38:28;;;;;;;55.63;28.27;;;;;;;;;;5014477;28;20193;-74
2021/03/25 01:40:56;;;;;;;53.07;28.13;;;;;;;;;;4997967;28;20620;-75
2021/03/25 01:43:29;;;;;;;56.73;28.13;;;;;;;;;;4998168;28;20550;-75
2021/03/25 01:45:55;;;;;;;54.47;28.23;;;;;;;;;;5014038;28;20969;-74
2021/03/25 01:48:23;;;;;;;53.63;27.60;;;;;;;;;;5013576;28;20194;-75
2021/03/25 01:50:49;;;;;;;56.10;29.10;;;;;;;;;;5014257;28;20198;-76
2021/03/25 01:53:24;;;;;;;54.13;28.83;;;;;;;;;;5014392;28;20568;-76
2021/03/25 01:55:50;;;;;;;58.50;29.97;;;;;;;;;;5014283;28;20206;-76
2021/03/25 01:58:20;;;;;;;59.00;30.10;;;;;;;;;;5033521;28;20536;-76
2021/03/25 02:00:47;;;;;;;53.03;28.97;;;;;;;;;;5018374;28;20190;-76
2021/03/25 02:03:23;;;;;;;58.53;30.00;;;;;;;;;;5002266;28;20190;-76
2021/03/25 02:06:13;;;;;;;53.33;28.47;;;;;;;;;;5035691;28;20292;-75
2021/03/25 02:08:51;;;;;;;54.93;28.93;;;;;;;;;;5018064;28;20159;-75
2021/03/25 02:11:37;;;;;;;61.73;29.63;;;;;;;;;;5035665;28;20260;-76
2021/03/25 02:14:16;;;;;;;54.57;28.90;;;;;;;;;;5035515;28;20266;-76
2021/03/25 02:16:44;;;;;;;58.93;28.13;;;;;;;;;;5035774;28;20198;-76
2021/03/25 02:19:23;;;;;;;55.97;29.60;;;;;;;;;;5035821;28;20180;-75
2021/03/25 02:21:52;;;;;;;58.80;29.80;;;;;;;;;;5018507;28;20238;-75
2021/03/25 02:24:24;;;;;;;58.20;29.63;;;;;;;;;;5035839;28;20641;-75
2021/03/25 02:26:55;;;;;;;56.00;29.70;;;;;;;;;;5018162;28;20206;-76
2021/03/25 02:29:39;;;;;;;59.07;30.60;;;;;;;;;;5002090;28;20189;-76
2021/03/25 02:32:07;;;;;;;57.87;29.13;;;;;;;;;;5035430;28;20181;-75
2021/03/25 02:34:34;;;;;;;57.73;29.63;;;;;;;;;;5017776;28;20190;-75
2021/03/25 02:37:10;;;;;;;57.83;30.40;;;;;;;;;;5001684;28;20632;-76
2021/03/25 02:39:53;;;;;;;60.30;31.10;;;;;;;;;;5017714;28;20186;-75
2021/03/25 02:42:19;;;;;;;53.80;27.60;;;;;;;;;;5017468;28;20646;-76
2021/03/25 02:44:50;;;;;;;59.70;31.13;;;;;;;;;;5017737;28;20202;-76
2021/03/25 02:47:16;;;;;;;55.83;29.63;;;;;;;;;;5017721;28;20225;-76
2021/03/25 02:49:43;;;;;;;57.10;30.43;;;;;;;;;;5017849;28;20182;-75
2021/03/25 02:52:14;;;;;;;56.03;29.30;;;;;;;;;;5000980;28;20678;-76
2021/03/25 02:54:40;;;;;;;53.87;30.67;;;;;;;;;;5001211;28;20220;-75
2021/03/25 02:57:08;;;;;;;58.20;31.60;;;;;;;;;;5017439;28;20183;-75
2021/03/25 02:59:35;;;;;;;59.80;29.87;;;;;;;;;;5035258;28;20188;-76
2021/03/25 03:02:03;;;;;;;62.47;31.00;;;;;;;;;;5017222;28;20193;-75
2021/03/25 03:04:30;;;;;;;59.73;29.97;;;;;;;;;;5000734;28;20566;-76
2021/03/25 03:07:31;;;;;;;55.37;29.70;;;;;;;;;;5017317;28;20201;-75
2021/03/25 03:09:59;;;;;;;54.93;29.30;;;;;;;;;;4991375;28;20540;-74
2021/03/25 03:12:26;;;;;;;60.37;30.37;;;;;;;;;;4996795;28;20191;-75
2021/03/25 03:14:53;;;;;;;59.83;30.80;;;;;;;;;;5017285;28;20201;-76
2021/03/25 03:17:23;;;;;;;58.67;30.43;;;;;;;;;;5017011;28;20204;-75
2021/03/25 03:19:52;;;;;;;61.13;30.77;;;;;;;;;;5017065;28;20210;-76
2021/03/25 03:22:18;;;;;;;56.53;30.63;;;;;;;;;;5000744;28;20280;-76
2021/03/25 03:24:47;;;;;;;56.83;29.97;;;;;;;;;;5000618;28;20357;-76
2021/03/25 03:27:14;;;;;;;54.97;28.77;;;;;;;;;;5000283;28;20225;-76
2021/03/25 03:29:41;;;;;;;56.30;29.70;;;;;;;;;;5016356;28;20180;-75
2021/03/25 03:32:07;;;;;;;57.87;30.63;;;;;;;;;;5017062;28;20180;-76
2021/03/25 03:34:34;;;;;;;58.13;30.30;;;;;;;;;;5016249;28;20179;-75
2021/03/25 03:37:03;;;;;;;58.50;30.80;;;;;;;;;;5016765;28;20186;-75
2021/03/25 03:39:29;;;;;;;54.90;29.67;;;;;;;;;;5016826;28;20573;-76
2021/03/25 03:41:56;;;;;;;55.77;29.70;;;;;;;;;;5000280;28;20189;-75
2021/03/25 03:44:27;;;;;;;63.53;30.83;;;;;;;;;;5016755;28;20232;-76
2021/03/25 03:46:53;;;;;;;60.37;30.03;;;;;;;;;;5016904;28;20691;-76
2021/03/25 03:49:23;;;;;;;57.17;30.93;;;;;;;;;;5016418;28;20254;-76
2021/03/25 03:52:01;;;;;;;51.83;28.47;;;;;;;;;;5016348;28;20269;-76
2021/03/25 03:54:27;;;;;;;57.00;30.40;;;;;;;;;;5016399;28;20185;-76
2021/03/25 03:57:22;;;;;;;62.17;30.17;;;;;;;;;;4999814;28;20277;-76
2021/03/25 04:00:07;;;;;;;58.17;30.20;;;;;;;;;;5007830;28;20256;-75
2021/03/25 04:02:37;;;;;;;57.83;29.27;;;;;;;;;;5015918;28;20189;-76
2021/03/25 04:05:22;;;;;;;60.40;30.83;;;;;;;;;;5015959;28;20241;-76
2021/03/25 04:07:48;;;;;;;56.13;29.70;;;;;;;;;;5015900;28;20271;-75
2021/03/25 04:10:18;;;;;;;55.97;29.53;;;;;;;;;;5016293;28;20246;-75
2021/03/25 04:12:46;;;;;;;55.07;30.10;;;;;;;;;;5016109;28;20179;-74
2021/03/25 04:15:22;;;;;;;56.53;29.53;;;;;;;;;;5015930;28;20196;-74
2021/03/25 04:17:50;;;;;;;56.50;29.70;;;;;;;;;;4999541;28;21159;-75
2021/03/25 04:20:17;;;;;;;54.37;29.80;;;;;;;;;;5016370;28;20216;-76
2021/03/25 04:22:44;;;;;;;67.27;30.60;;;;;;;;;;4999263;28;20648;-76
2021/03/25 04:25:21;;;;;;;57.73;30.43;;;;;;;;;;5016166;28;20251;-76
2021/03/25 04:27:49;;;;;;;53.50;28.17;;;;;;;;;;5033677;28;20577;-76
2021/03/25 04:30:17;;;;;;;55.67;29.43;;;;;;;;;;5015893;28;20598;-76
2021/03/25 04:32:44;;;;;;;55.13;28.93;;;;;;;;;;4998977;28;20278;-76
2021/03/25 04:35:10;;;;;;;52.47;28.57;;;;;;;;;;5026512;22;20296;-76
2021/03/25 04:37:36;;;;;;;58.83;29.27;;;;;;;;;;5029874;28;20189;-76
2021/03/25 04:40:02;;;;;;;63.60;30.60;;;;;;;;;;5014759;28;20685;-79
2021/03/25 04:42:28;;;;;;;66.50;31.00;;;;;;;;;;5012599;28;20272;-79
2021/03/25 04:45:05;;;;;;;63.03;31.83;;;;;;;;;;5018857;28;20189;-79
2021/03/25 04:47:36;;;;;;;66.17;32.23;;;;;;;;;;5000521;28;20220;-79
2021/03/25 04:50:02;;;;;;;60.13;31.60;;;;;;;;;;5000355;28;20181;-79
2021/03/25 04:52:29;;;;;;;59.37;30.30;;;;;;;;;;5016391;28;20200;-78
2021/03/25 04:54:55;;;;;;;60.63;31.53;;;;;;;;;;5001063;28;20185;-79
2021/03/25 04:57:27;;;;;;;56.63;30.97;;;;;;;;;;5013624;28;20182;-79
2021/03/25 04:59:54;;;;;;;57.00;30.47;;;;;;;;;;5029613;28;20190;-79
2021/03/25 05:02:20;;;;;;;60.67;31.73;;;;;;;;;;5016886;28;20178;-79
2021/03/25 05:04:47;;;;;;;60.70;31.60;;;;;;;;;;5016175;28;20182;-79
2021/03/25 05:07:15;;;;;;;59.43;31.50;;;;;;;;;;5016171;28;20210;-79
2021/03/25 05:09:41;;;;;;;63.60;31.57;;;;;;;;;;5016357;28;20596;-79
2021/03/25 05:12:07;;;;;;;59.77;32.97;;;;;;;;;;5016694;28;20182;-79
2021/03/25 05:14:33;;;;;;;66.23;32.60;;;;;;;;;;4995453;28;20194;-79
2021/03/25 05:17:25;;;;;;;60.67;31.50;;;;;;;;;;4996412;28;20200;-78
2021/03/25 05:19:55;;;;;;;60.33;33.53;;;;;;;;;;4978877;28;20195;-76
2021/03/25 05:22:23;;;;;;;60.40;34.03;;;;;;;;;;5014041;28;20275;-76
2021/03/25 05:24:51;;;;;;;62.30;33.43;;;;;;;;;;4998178;28;20218;-76
2021/03/25 05:27:21;;;;;;;60.73;31.77;;;;;;;;;;5014253;28;20221;-76
2021/03/25 05:29:48;;;;;;;61.43;32.80;;;;;;;;;;5014679;28;20181;-76
2021/03/25 05:32:15;;;;;;;58.87;32.30;;;;;;;;;;4997268;28;20235;-76
2021/03/25 05:34:41;;;;;;;56.00;30.97;;;;;;;;;;5014345;28;20178;-76
2021/03/25 05:37:07;;;;;;;63.30;33.57;;;;;;;;;;4997702;28;20312;-77
2021/03/25 05:39:33;;;;;;;63.40;33.03;;;;;;;;;;4998003;28;20264;-76
2021/03/25 05:42:02;;;;;;;62.00;33.83;;;;;;;;;;4997645;28;20182;-76
2021/03/25 05:44:52;;;;;;;65.50;34.53;;;;;;;;;;5016746;28;20181;-79
2021/03/25 05:47:21;;;;;;;67.60;32.20;;;;;;;;;;5015267;28;20228;-79
2021/03/25 05:50:05;;;;;;;62.80;33.27;;;;;;;;;;5032312;28;20189;-77
2021/03/25 05:52:43;;;;;;;62.83;34.00;;;;;;;;;;5012197;28;20556;-75
2021/03/25 05:55:28;;;;;;;64.03;33.17;;;;;;;;;;4994290;28;20292;-75
2021/03/25 05:58:27;;;;;;;64.83;32.83;;;;;;;;;;5003024;28;20496;-75
2021/03/25 06:00:55;;;;;;;57.63;32.63;;;;;;;;;;4997468;28;20206;-74
2021/03/25 06:03:21;;;;;;;65.20;32.47;;;;;;;;;;5013408;28;20673;-74
2021/03/25 06:05:49;;;;;;;63.57;33.33;;;;;;;;;;5013880;28;20775;-74
2021/03/25 06:08:19;;;;;;;61.80;33.57;;;;;;;;;;4997408;28;20719;-73
2021/03/25 06:10:47;;;;;;;59.53;33.13;;;;;;;;;;4995222;28;20184;-73
2021/03/25 06:13:37;;;;;;;63.77;33.60;;;;;;;;;;5033202;28;20561;-73
2021/03/25 06:16:06;;;;;;;60.10;32.53;;;;;;;;;;5031564;28;20210;-74
2021/03/25 06:18:32;;;;;;;62.60;32.83;;;;;;;;;;5051333;28;20247;-75
2021/03/25 06:21:07;;;;;;;59.93;33.57;;;;;;;;;;5051879;28;20182;-75
2021/03/25 06:23:36;;;;;;;65.23;34.23;;;;;;;;;;5013296;28;20232;-75
2021/03/25 06:26:05;;;;;;;61.43;32.87;;;;;;;;;;5027738;28;20306;-75
2021/03/25 06:28:36;;;;;;;61.97;32.43;;;;;;;;;;5014700;28;20352;-74
2021/03/25 06:31:17;;;;;;;59.80;31.83;;;;;;;;;;5033727;28;20263;-72
2021/03/25 06:33:51;;;;;;;60.47;33.50;;;;;;;;;;5042303;28;20186;-73
2021/03/25 06:36:17;;;;;;;56.20;32.13;;;;;;;;;;5010216;28;20225;-75
2021/03/25 06:38:44;;;;;;;61.50;31.93;;;;;;;;;;5012960;28;20656;-75
2021/03/25 06:41:13;;;;;;;55.10;29.80;;;;;;;;;;5013640;28;20217;-76
2021/03/25 06:43:45;;;;;;;57.30;29.17;;;;;;;;;;5013767;28;20187;-73
2021/03/25 06:46:19;;;;;;;52.47;29.33;;;;;;;;;;5000618;28;20206;-75
2021/03/25 06:48:46;;;;;;;53.20;29.07;;;;;;;;;;5015501;28;20182;-75
2021/03/25 06:51:20;;;;;;;53.57;28.03;;;;;;;;;;5015208;28;20171;-78
2021/03/25 06:53:46;;;;;;;54.97;28.53;;;;;;;;;;5015523;28;20241;-78
2021/03/25 06:56:14;;;;;;;59.50;30.73;;;;;;;;;;5015221;28;20234;-78
2021/03/25 06:58:48;;;;;;;55.07;29.20;;;;;;;;;;5012856;28;20560;-78
2021/03/25 07:01:17;;;;;;;56.80;30.70;;;;;;;;;;4997270;28;20275;-78
2021/03/25 07:03:43;;;;;;;56.30;31.37;;;;;;;;;;5035803;28;20556;-78
2021/03/25 07:06:08;;;;;;;59.37;32.13;;;;;;;;;;5000126;28;20207;-78
2021/03/25 07:08:34;;;;;;;60.53;32.87;;;;;;;;;;5019599;28;20655;-78
2021/03/25 07:11:04;;;;;;;61.40;33.27;;;;;;;;;;5019435;28;20186;-78
2021/03/25 07:13:30;;;;;;;58.07;31.97;;;;;;;;;;5018021;28;20575;-76
2021/03/25 07:15:56;;;;;;;59.93;31.47;;;;;;;;;;5032973;28;20695;-76
2021/03/25 07:18:25;;;;;;;60.90;32.73;;;;;;;;;;5014953;28;20194;-80
2021/03/25 07:20:51;;;;;;;61.40;31.87;;;;;;;;;;5014350;28;20214;-78
2021/03/25 07:23:16;;;;;;;61.63;33.87;;;;;;;;;;5015453;28;20660;-78
2021/03/25 07:25:43;;;;;;;61.03;33.50;;;;;;;;;;5016565;28;20714;-77
2021/03/25 07:28:17;;;;;;;58.83;33.67;;;;;;;;;;5016913;28;20182;-80
2021/03/25 07:30:45;;;;;;;63.03;34.03;;;;;;;;;;5018301;28;20250;-78
2021/03/25 07:33:21;;;;;;;59.47;32.13;;;;;;;;;;5006898;28;20184;-77
2021/03/25 07:35:48;;;;;;;56.93;33.20;;;;;;;;;;5011425;28;20219;-77
2021/03/25 07:38:37;;;;;;;69.90;35.80;;;;;;;;;;4995946;28;20206;-81
2021/03/25 07:41:25;;;;;;;62.70;34.10;;;;;;;;;;5018525;28;20194;-77
2021/03/25 07:43:55;;;;;;;63.30;35.37;;;;;;;;;;5000814;28;20578;-77
2021/03/25 07:46:27;;;;;;;65.80;35.53;;;;;;;;;;5016349;28;20587;-77
2021/03/25 07:49:01;;;;;;;70.63;36.53;;;;;;;;;;5016068;28;20241;-78
2021/03/25 07:51:27;;;;;;;70.47;37.43;;;;;;;;;;5006700;28;20235;-78
2021/03/25 07:54:09;;;;;;;73.00;41.47;;;;;;;;;;5034467;28;20171;-77
2021/03/25 07:56:35;;;;;;;77.73;40.47;;;;;;;;;;5014850;28;20199;-76
2021/03/25 07:59:01;;;;;;;77.70;39.40;;;;;;;;;;5016105;28;20189;-77
2021/03/25 08:01:27;;;;;;;69.53;41.00;;;;;;;;;;5015898;28;20361;-77
2021/03/25 08:03:54;;;;;;;74.73;39.73;;;;;;;;;;5016158;28;20189;-77
2021/03/25 08:06:30;;;;;;;75.47;40.40;;;;;;;;;;5015932;28;20216;-77
2021/03/25 08:09:00;;;;;;;69.23;38.63;;;;;;;;;;4999863;28;20230;-77
2021/03/25 08:11:26;;;;;;;68.33;38.47;;;;;;;;;;5015809;28;20183;-77
2021/03/25 08:13:59;;;;;;;66.43;38.60;;;;;;;;;;4999305;28;20183;-77
2021/03/25 08:16:25;;;;;;;65.17;36.83;;;;;;;;;;5015840;28;20242;-77
2021/03/25 08:19:04;;;;;;;62.77;36.70;;;;;;;;;;5015962;28;20757;-77
2021/03/25 08:21:44;;;;;;;64.43;36.63;;;;;;;;;;5036962;28;20202;-77
2021/03/25 08:24:10;;;;;;;65.10;38.37;;;;;;;;;;5015144;28;20183;-77
2021/03/25 08:26:42;;;;;;;65.70;37.37;;;;;;;;;;5032695;28;20261;-78
2021/03/25 08:29:26;;;;;;;68.17;39.13;;;;;;;;;;5032871;28;20187;-77
2021/03/25 08:31:55;;;;;;;71.87;38.67;;;;;;;;;;5030065;28;20246;-77
2021/03/25 08:34:31;;;;;;;73.23;39.03;;;;;;;;;;4998879;28;20180;-77
2021/03/25 08:37:03;;;;;;;66.83;37.80;;;;;;;;;;4998355;28;20246;-77
2021/03/25 08:39:32;;;;;;;70.13;39.23;;;;;;;;;;5015272;28;20603;-77
2021/03/25 08:42:18;;;;;;;69.77;39.97;;;;;;;;;;5008715;28;20187;-77
2021/03/25 08:44:44;;;;;;;71.27;39.17;;;;;;;;;;5027566;28;20189;-77
2021/03/25 08:47:16;;;;;;;66.33;38.37;;;;;;;;;;5013055;28;20208;-77
2021/03/25 08:49:45;;;;;;;66.93;38.23;;;;;;;;;;5006762;28;20268;-77
2021/03/25 08:52:12;;;;;;;74.27;39.87;;;;;;;;;;4998300;28;20185;-78
2021/03/25 08:54:46;;;;;;;68.97;38.57;;;;;;;;;;5015338;28;20209;-78
2021/03/25 08:57:15;;;;;;;65.97;37.20;;;;;;;;;;5015640;28;20183;-78
2021/03/25 08:59:41;;;;;;;68.47;37.60;;;;;;;;;;5017389;28;20178;-78
2021/03/25 09:02:25;;;;;;;65.73;39.17;;;;;;;;;;5018479;28;20274;-78
2021/03/25 09:04:58;;;;;;;70.47;39.00;;;;;;;;;;5033362;28;20193;-79
2021/03/25 09:07:24;;;;;;;72.20;39.47;;;;;;;;;;5014978;28;20281;-79
2021/03/25 09:09:54;;;;;;;71.83;40.40;;;;;;;;;;5000273;28;20654;-79
2021/03/25 09:12:21;;;;;;;69.10;38.40;;;;;;;;;;4999914;28;20231;-80
2021/03/25 09:14:48;;;;;;;71.47;40.03;;;;;;;;;;4999241;28;20192;-77
2021/03/25 09:17:16;;;;;;;67.43;38.93;;;;;;;;;;5015858;28;20181;-78
2021/03/25 09:19:46;;;;;;;67.90;39.07;;;;;;;;;;5015792;28;20179;-78
2021/03/25 09:22:31;;;;;;;67.90;39.00;;;;;;;;;;5014849;28;20186;-79
2021/03/25 09:25:15;;;;;;;71.03;40.33;;;;;;;;;;5033305;28;20548;-79
2021/03/25 09:28:00;;;;;;;79.23;40.87;;;;;;;;;;5015600;28;20240;-78
2021/03/25 09:30:42;;;;;;;74.90;40.83;;;;;;;;;;5014566;28;20179;-79
2021/03/25 09:33:27;;;;;;;69.50;40.77;;;;;;;;;;4981257;28;20193;-78
2021/03/25 09:35:53;;;;;;;68.53;40.03;;;;;;;;;;4998935;28;20229;-78
2021/03/25 09:38:32;;;;;;;70.57;42.03;;;;;;;;;;4997140;28;20214;-83
2021/03/25 09:40:58;;;;;;;68.40;39.70;;;;;;;;;;4995777;28;20663;-78
2021/03/25 09:43:27;;;;;;;71.77;41.37;;;;;;;;;;4981822;28;20555;-78
2021/03/25 09:45:56;;;;;;;70.07;39.80;;;;;;;;;;5015496;28;20209;-78
2021/03/25 09:48:28;;;;;;;68.47;39.17;;;;;;;;;;5015843;28;20227;-78
2021/03/25 09:51:01;;;;;;;75.67;41.27;;;;;;;;;;5015158;28;20187;-78
2021/03/25 09:53:27;;;;;;;72.57;40.27;;;;;;;;;;5015408;28;20190;-79
2021/03/25 09:55:58;;;;;;;73.67;39.57;;;;;;;;;;5016198;28;20886;-78
2021/03/25 09:58:43;;;;;;;70.93;41.00;;;;;;;;;;5015359;28;20194;-78
2021/03/25 10:01:09;;;;;;;67.17;37.50;;;;;;;;;;5015509;28;20274;-77
2021/03/25 10:03:53;;;;;;;65.27;37.07;;;;;;;;;;5013782;28;20226;-77
2021/03/25 10:06:38;;;;;;;66.47;37.40;;;;;;;;;;5031573;28;20233;-78
2021/03/25 10:09:04;;;;;;;67.17;35.90;;;;;;;;;;5014129;28;20237;-77
2021/03/25 10:12:00;;;;;;;60.53;34.57;;;;;;;;;;5014299;28;20174;-76
2021/03/25 10:14:45;;;;;;;54.13;31.47;;;;;;;;;;4993964;28;20281;-77
2021/03/25 10:17:32;;;;;;;56.77;32.77;;;;;;;;;;5013573;28;20178;-77
2021/03/25 10:19:58;;;;;;;62.60;36.03;;;;;;;;;;5000130;28;20687;-78
2021/03/25 10:22:24;;;;;;;62.17;35.77;;;;;;;;;;5000997;28;20281;-78
2021/03/25 10:24:56;;;;;;;65.07;37.13;;;;;;;;;;5018042;28;20221;-77
2021/03/25 10:27:42;;;;;;;45.70;27.27;;;;;;;;;;5001214;28;20644;-77
2021/03/25 10:30:25;;;;;;;53.83;31.63;;;;;;;;;;5017983;28;20174;-78
2021/03/25 10:32:52;;;;;;;58.13;35.37;;;;;;;;;;5000742;28;20648;-78
2021/03/25 10:35:20;;;;;;;53.50;31.40;;;;;;;;;;5017831;28;20687;-77
2021/03/25 10:37:46;;;;;;;51.37;31.37;;;;;;;;;;5017574;28;20233;-77
2021/03/25 10:40:16;;;;;;;54.70;31.53;;;;;;;;;;5017709;28;20265;-78
2021/03/25 10:42:43;;;;;;;48.30;29.37;;;;;;;;;;5016707;28;20614;-78
2021/03/25 10:45:21;;;;;;;51.17;29.70;;;;;;;;;;5001095;28;20297;-77
2021/03/25 10:48:07;;;;;;;50.27;29.87;;;;;;;;;;5034821;28;20252;-77
2021/03/25 10:50:33;;;;;;;52.70;31.53;;;;;;;;;;5017445;28;20183;-77
2021/03/25 10:53:00;;;;;;;50.37;30.50;;;;;;;;;;5034221;28;20182;-79
2021/03/25 10:55:31;;;;;;;51.67;31.50;;;;;;;;;;5017485;28;20616;-77
2021/03/25 10:57:58;;;;;;;53.57;31.13;;;;;;;;;;5008626;28;20191;-76
2021/03/25 11:00:32;;;;;;;54.00;30.77;;;;;;;;;;4998405;28;20186;-78
2021/03/25 11:03:02;;;;;;;48.43;29.60;;;;;;;;;;5016510;28;20193;-77
2021/03/25 11:05:29;;;;;;;48.07;29.50;;;;;;;;;;5001117;28;20302;-76
2021/03/25 11:07:56;;;;;;;49.00;29.20;;;;;;;;;;5015079;28;20268;-76
2021/03/25 11:10:28;;;;;;;45.90;28.20;;;;;;;;;;5016216;28;20293;-76
2021/03/25 11:12:55;;;;;;;52.43;29.17;;;;;;;;;;5033991;28;20181;-77
2021/03/25 11:15:24;;;;;;;49.57;28.77;;;;;;;;;;5016680;28;20241;-77
2021/03/25 11:17:50;;;;;;;50.27;29.77;;;;;;;;;;5016892;28;20175;-77
2021/03/25 11:20:17;;;;;;;47.53;29.70;;;;;;;;;;5000230;28;20190;-77
2021/03/25 11:22:43;;;;;;;44.07;29.27;;;;;;;;;;4999749;28;20179;-77
2021/03/25 11:25:29;;;;;;;47.33;30.73;;;;;;;;;;5016458;28;20672;-77
2021/03/25 11:28:00;;;;;;;51.87;31.40;;;;;;;;;;5033974;28;20202;-76
2021/03/25 11:30:34;;;;;;;53.17;30.43;;;;;;;;;;5015483;28;20547;-77
2021/03/25 11:33:00;;;;;;;49.27;30.63;;;;;;;;;;5016091;28;20174;-77
2021/03/25 11:35:35;;;;;;;51.00;30.00;;;;;;;;;;5016179;28;20682;-77
2021/03/25 11:38:20;;;;;;;52.17;29.43;;;;;;;;;;5016113;28;20665;-76
2021/03/25 11:40:46;;;;;;;52.53;30.30;;;;;;;;;;5015776;28;20190;-77
2021/03/25 11:43:14;;;;;;;49.63;31.40;;;;;;;;;;5016003;28;20175;-77
2021/03/25 11:45:40;;;;;;;54.70;30.40;;;;;;;;;;5015966;28;20241;-77
2021/03/25 11:48:18;;;;;;;52.00;32.37;;;;;;;;;;5033170;28;20214;-77
2021/03/25 11:50:46;;;;;;;51.30;30.00;;;;;;;;;;5033250;28;20194;-78
2021/03/25 11:53:26;;;;;;;45.30;29.83;;;;;;;;;;5015758;28;20186;-77
2021/03/25 11:55:53;;;;;;;51.07;28.90;;;;;;;;;;5015813;28;20198;-77
2021/03/25 11:58:22;;;;;;;45.97;28.43;;;;;;;;;;5016005;28;20261;-77
2021/03/25 12:01:12;;;;;;;48.40;28.00;;;;;;;;;;5015928;28;20719;-76
2021/03/25 12:03:51;;;;;;;45.97;27.93;;;;;;;;;;5002740;28;20197;-76
2021/03/25 12:06:18;;;;;;;49.47;28.07;;;;;;;;;;5015798;28;20340;-77
2021/03/25 12:08:44;;;;;;;44.57;28.00;;;;;;;;;;4999476;28;20182;-77
2021/03/25 12:11:11;;;;;;;43.37;27.77;;;;;;;;;;5015858;28;20179;-78
2021/03/25 12:13:38;;;;;;;46.63;28.20;;;;;;;;;;5016244;28;20224;-77
2021/03/25 12:16:04;;;;;;;45.27;28.23;;;;;;;;;;4999239;28;20213;-77
2021/03/25 12:18:32;;;;;;;46.40;28.43;;;;;;;;;;5015788;28;20201;-77
2021/03/25 12:20:59;;;;;;;50.20;30.10;;;;;;;;;;4999313;28;20210;-77
2021/03/25 12:23:27;;;;;;;49.33;30.00;;;;;;;;;;4999037;28;20218;-77
2021/03/25 12:25:53;;;;;;;44.80;28.87;;;;;;;;;;5033073;28;20676;-77
2021/03/25 12:28:19;;;;;;;50.70;30.80;;;;;;;;;;5015490;28;20170;-77
2021/03/25 12:30:46;;;;;;;54.00;32.13;;;;;;;;;;5015666;28;20179;-77
2021/03/25 12:33:16;;;;;;;49.43;31.40;;;;;;;;;;4999266;28;20225;-77
2021/03/25 12:35:42;;;;;;;55.03;31.93;;;;;;;;;;5016132;28;20218;-78
2021/03/25 12:38:09;;;;;;;49.30;30.63;;;;;;;;;;5033586;28;20179;-78
2021/03/25 12:40:35;;;;;;;51.87;29.87;;;;;;;;;;4999749;28;20187;-77
2021/03/25 12:43:01;;;;;;;49.20;32.70;;;;;;;;;;5015636;28;20194;-77
2021/03/25 12:45:27;;;;;;;50.97;31.03;;;;;;;;;;5000088;28;20233;-76
2021/03/25 12:47:53;;;;;;;52.97;31.00;;;;;;;;;;5032576;28;20213;-77
2021/03/25 12:50:19;;;;;;;51.27;32.43;;;;;;;;;;5015304;28;20554;-77
2021/03/25 12:52:45;;;;;;;48.50;32.20;;;;;;;;;;5015219;28;20175;-77
2021/03/25 12:55:11;;;;;;;51.30;32.97;;;;;;;;;;5032929;28;20241;-76
2021/03/25 12:57:37;;;;;;;48.73;31.70;;;;;;;;;;5015327;28;20179;-78
2021/03/25 13:00:06;;;;;;;48.23;30.93;;;;;;;;;;5015236;28;20702;-77
2021/03/25 13:02:32;;;;;;;47.33;30.90;;;;;;;;;;5014963;28;20178;-77
2021/03/25 13:04:58;;;;;;;47.97;30.23;;;;;;;;;;5000143;28;20405;-76
2021/03/25 13:07:24;;;;;;;48.17;30.73;;;;;;;;;;5000407;28;20217;-77
2021/03/25 13:09:50;;;;;;;48.33;29.33;;;;;;;;;;5016708;28;20261;-78
2021/03/25 13:12:23;;;;;;;45.97;27.77;;;;;;;;;;4999860;28;20175;-77
2021/03/25 13:14:49;;;;;;;46.13;28.57;;;;;;;;;;5000039;28;20178;-78
2021/03/25 13:17:15;;;;;;;45.30;28.80;;;;;;;;;;5015584;28;20341;-77
2021/03/25 13:19:41;;;;;;;39.13;24.70;;;;;;;;;;5014232;28;20719;-78
2021/03/25 13:22:07;;;;;;;40.90;25.00;;;;;;;;;;5015294;28;20273;-77
2021/03/25 13:24:33;;;;;;;43.83;27.03;;;;;;;;;;4999699;28;20249;-78
2021/03/25 13:26:59;;;;;;;44.80;27.77;;;;;;;;;;5032753;28;20210;-79
2021/03/25 13:29:25;;;;;;;43.57;28.77;;;;;;;;;;4990207;28;20182;-79
2021/03/25 13:31:51;;;;;;;39.63;26.17;;;;;;;;;;4998646;28;20186;-79
2021/03/25 13:34:17;;;;;;;38.37;23.30;;;;;;;;;;4997349;28;20299;-79
2021/03/25 13:36:43;;;;;;;36.80;23.43;;;;;;;;;;4994429;28;20289;-78
2021/03/25 13:39:09;;;;;;;37.50;24.13;;;;;;;;;;5028398;28;20194;-80
2021/03/25 13:41:35;;;;;;;36.67;23.00;;;;;;;;;;4999741;28;20269;-80
2021/03/25 13:44:01;;;;;;;34.77;22.40;;;;;;;;;;5016335;28;20236;-79
2021/03/25 13:46:27;;;;;;;33.57;21.83;;;;;;;;;;5000111;28;20696;-79
2021/03/25 13:48:53;;;;;;;29.30;18.83;;;;;;;;;;5016455;28;20381;-80
2021/03/25 13:51:20;;;;;;;24.40;17.23;;;;;;;;;;4999186;28;20224;-79
2021/03/25 13:53:46;;;;;;;27.40;16.10;;;;;;;;;;5001332;28;20630;-78
2021/03/25 13:56:12;;;;;;;24.83;15.07;;;;;;;;;;5022410;28;20234;-81
2021/03/25 13:58:38;;;;;;;22.60;14.40;;;;;;;;;;5005164;28;20212;-79
2021/03/25 14:01:04;;;;;;;21.30;12.77;;;;;;;;;;5005250;28;20636;-79
2021/03/25 14:03:30;;;;;;;20.50;13.17;;;;;;;;;;5005326;28;20200;-78
2021/03/25 14:05:56;;;;;;;16.80;10.67;;;;;;;;;;5040327;28;20583;-80
2021/03/25 14:08:22;;;;;;;16.43;10.90;;;;;;;;;;5004908;28;20192;-78
2021/03/25 14:10:48;;;;;;;15.97;11.03;;;;;;;;;;5021212;28;20673;-78
2021/03/25 14:13:14;;;;;;;17.27;11.40;;;;;;;;;;5005058;28;20277;-78
2021/03/25 14:15:42;;;;;;;19.67;12.20;;;;;;;;;;5020926;28;20208;-78
2021/03/25 14:18:08;;;;;;;16.43;11.57;;;;;;;;;;5005363;28;20565;-78
2021/03/25 14:20:34;;;;;;;17.77;11.47;;;;;;;;;;5005401;28;20186;-79
2021/03/25 14:23:00;;;;;;;16.30;10.37;;;;;;;;;;5037257;28;20187;-78
2021/03/25 14:25:31;;;;;;;16.73;10.00;;;;;;;;;;5020807;28;20200;-78
2021/03/25 14:27:57;;;;;;;13.70;9.57;;;;;;;;;;5023473;28;20237;-78
2021/03/25 14:30:23;;;;;;;15.00;9.60;;;;;;;;;;5040684;28;20214;-79
2021/03/25 14:32:49;;;;;;;11.53;7.57;;;;;;;;;;5005947;28;20179;-79